Time;durP1;ratioP1;P1;durP2;ratioP2;P2;SDS_P1;SDS_P2;PMS_P1;PMS_P2;Temp;Humidity;BMP_temperature;BMP_pressure;BME280_temperature;BME280_humidity;BME280_pressure;Samples;Min_cycle;Max_cycle;Signal;HPM_P1;HPM_P2
2023/04/30 00:01:40;;;;;;;3.70;2.10;;;;;;;6.73;100.00;102426.81;5001245;28;20045;-73
2023/04/30 00:04:05;;;;;;;5.93;2.45;;;;;;;6.72;100.00;102434.69;5003108;28;20033;-73
2023/04/30 00:06:31;;;;;;;6.00;2.40;;;;;;;6.70;100.00;102432.06;5001230;28;20527;-73
2023/04/30 00:08:57;;;;;;;2.95;2.00;;;;;;;6.69;100.00;102440.00;5002714;28;20158;-73
2023/04/30 00:11:24;;;;;;;6.93;2.28;;;;;;;6.65;100.00;102434.72;5004236;28;20175;-73
2023/04/30 00:13:50;;;;;;;3.53;2.50;;;;;;;6.61;100.00;102433.00;5002039;28;20473;-73
2023/04/30 00:16:16;;;;;;;5.18;2.47;;;;;;;6.57;100.00;102432.97;4966686;28;20041;-73
2023/04/30 00:18:42;;;;;;;4.05;2.35;;;;;;;6.55;100.00;102447.91;5002034;28;20041;-73
2023/04/30 00:21:08;;;;;;;10.48;2.60;;;;;;;6.50;100.00;102440.88;5001960;28;20037;-73
2023/04/30 00:23:33;;;;;;;5.68;2.80;;;;;;;6.48;100.00;102439.19;4983553;28;20487;-73
2023/04/30 00:25:59;;;;;;;5.00;2.47;;;;;;;6.46;100.00;102439.16;4989415;28;20476;-73
2023/04/30 00:28:24;;;;;;;5.00;2.72;;;;;;;6.44;100.00;102440.94;4985461;28;20516;-74
2023/04/30 00:30:50;;;;;;;4.25;2.50;;;;;;;6.42;100.00;102440.03;5001492;28;20050;-74
2023/04/30 00:33:15;;;;;;;5.28;2.88;;;;;;;6.39;100.00;102438.28;5002624;28;20056;-72
2023/04/30 00:35:41;;;;;;;3.90;2.63;;;;;;;6.38;100.00;102440.94;4970358;28;20046;-73
2023/04/30 00:38:07;;;;;;;5.40;2.72;;;;;;;6.35;100.00;102440.94;5000569;28;20100;-73
2023/04/30 00:40:36;;;;;;;4.53;2.78;;;;;;;6.33;100.00;102443.56;5001629;28;20041;-73
2023/04/30 00:43:02;;;;;;;4.13;2.70;;;;;;;6.29;100.00;102436.56;4982700;28;20432;-73
2023/04/30 00:45:27;;;;;;;5.00;2.70;;;;;;;6.27;100.00;102433.09;5002312;28;20770;-73
2023/04/30 00:47:53;;;;;;;7.88;3.08;;;;;;;6.24;100.00;102433.06;5002205;28;20037;-73
2023/04/30 00:50:19;;;;;;;4.70;2.65;;;;;;;6.21;100.00;102439.22;5000968;28;20037;-73
2023/04/30 00:52:44;;;;;;;4.82;2.90;;;;;;;6.20;100.00;102436.56;5001408;28;22269;-73
2023/04/30 00:55:11;;;;;;;5.70;3.08;;;;;;;6.19;100.00;102435.72;4987096;28;20042;-74
2023/04/30 00:57:37;;;;;;;6.47;3.00;;;;;;;6.17;100.00;102437.47;4983786;28;20159;-73
2023/04/30 01:00:03;;;;;;;4.45;3.10;;;;;;;6.15;100.00;102433.09;4983651;28;20838;-73
2023/04/30 01:02:29;;;;;;;4.70;2.90;;;;;;;6.15;100.00;102428.69;4984817;28;21074;-73
2023/04/30 01:04:55;;;;;;;5.50;2.97;;;;;;;6.15;100.00;102427.84;4999920;28;20037;-73
2023/04/30 01:07:21;;;;;;;7.13;3.30;;;;;;;6.13;100.00;102437.47;5001858;28;20138;-73
2023/04/30 01:09:46;;;;;;;6.57;3.33;;;;;;;6.11;100.00;102440.13;4985059;28;20073;-73
2023/04/30 01:12:24;;;;;;;6.05;3.20;;;;;;;6.10;100.00;102441.84;5001548;28;20041;-73
2023/04/30 01:15:03;;;;;;;7.57;3.30;;;;;;;6.10;100.00;102446.25;5002107;28;20092;-73
2023/04/30 01:17:54;;;;;;;6.00;2.90;;;;;;;6.06;100.00;102445.34;4982457;28;20116;-73
2023/04/30 01:20:20;;;;;;;8.85;3.35;;;;;;;6.05;100.00;102437.50;4967616;28;20606;-73
2023/04/30 01:22:50;;;;;;;6.95;3.38;;;;;;;6.03;100.00;102437.47;4999828;28;20076;-73
2023/04/30 01:25:35;;;;;;;7.43;3.00;;;;;;;6.03;100.00;102434.84;4986034;28;20037;-73
2023/04/30 01:28:19;;;;;;;4.80;3.05;;;;;;;6.04;100.00;102431.34;5007001;28;20061;-73
2023/04/30 01:30:45;;;;;;;6.03;3.03;;;;;;;6.06;100.00;102433.97;4984120;28;20053;-73
2023/04/30 01:33:13;;;;;;;5.75;3.60;;;;;;;6.10;100.00;102431.34;4985907;28;20049;-73
2023/04/30 01:35:53;;;;;;;6.95;3.28;;;;;;;6.13;100.00;102430.47;5001134;28;20056;-74
2023/04/30 01:38:43;;;;;;;7.68;3.13;;;;;;;6.16;100.00;102440.09;5001132;28;20072;-73
2023/04/30 01:41:15;;;;;;;7.30;3.28;;;;;;;6.19;100.00;102440.97;5000989;28;20037;-73
2023/04/30 01:44:32;;;;;;;5.82;2.88;;;;;;;6.22;100.00;102435.69;4982515;28;20044;-73
2023/04/30 01:47:05;;;;;;;4.85;2.92;;;;;;;6.23;100.00;102426.06;4930979;28;20537;-72
2023/04/30 01:50:05;;;;;;;5.78;3.08;;;;;;;6.24;100.00;102430.44;4929836;28;20047;-73
2023/04/30 01:52:45;;;;;;;5.57;3.28;;;;;;;6.24;100.00;102426.06;4980075;28;20058;-73
2023/04/30 01:55:14;;;;;;;4.75;2.78;;;;;;;6.25;100.00;102427.81;5001073;28;20042;-72
2023/04/30 01:57:49;;;;;;;5.30;2.67;;;;;;;6.27;100.00;102430.44;4983052;28;20503;-74
2023/04/30 02:00:16;;;;;;;4.90;3.20;;;;;;;6.28;100.00;102434.84;5001631;28;20385;-73
2023/04/30 02:02:44;;;;;;;5.80;3.15;;;;;;;6.30;100.00;102443.59;4969463;28;20919;-73
2023/04/30 02:05:10;;;;;;;8.55;3.00;;;;;;;6.29;100.00;102441.84;5002300;28;20093;-73
2023/04/30 02:07:40;;;;;;;4.95;3.30;;;;;;;6.30;100.00;102437.44;5002014;28;20275;-73
2023/04/30 02:10:06;;;;;;;4.28;2.92;;;;;;;6.31;100.00;102436.59;5001162;28;20444;-73
2023/04/30 02:12:32;;;;;;;6.38;3.28;;;;;;;6.32;100.00;102435.69;5000723;28;20080;-73
2023/04/30 02:14:57;;;;;;;8.63;3.28;;;;;;;6.35;100.00;102448.81;4998691;28;20072;-73
2023/04/30 02:17:23;;;;;;;5.03;3.50;;;;;;;6.37;100.00;102445.31;5000302;28;20044;-73
2023/04/30 02:19:50;;;;;;;6.88;3.10;;;;;;;6.38;100.00;102441.81;4998831;28;20048;-73
2023/04/30 02:22:16;;;;;;;5.55;3.00;;;;;;;6.39;100.00;102433.03;5000054;28;20849;-73
2023/04/30 02:24:42;;;;;;;7.88;3.08;;;;;;;6.39;100.00;102433.03;5000783;28;20095;-73
2023/04/30 02:27:07;;;;;;;3.97;2.83;;;;;;;6.41;100.00;102425.13;5000441;28;20116;-73
2023/04/30 02:29:33;;;;;;;4.47;3.35;;;;;;;6.44;100.00;102430.41;5000054;28;20079;-73
2023/04/30 02:31:58;;;;;;;9.20;3.60;;;;;;;6.44;100.00;102435.69;4982393;28;22090;-73
2023/04/30 02:34:24;;;;;;;8.25;3.58;;;;;;;6.43;100.00;102427.78;5000969;28;20108;-73
2023/04/30 02:36:50;;;;;;;7.20;3.05;;;;;;;6.45;100.00;102433.91;5000468;28;20041;-73
2023/04/30 02:39:16;;;;;;;6.30;3.05;;;;;;;6.46;100.00;102433.91;5004335;28;20497;-73
2023/04/30 02:41:41;;;;;;;5.25;3.08;;;;;;;6.45;100.00;102426.00;5003870;28;20068;-73
2023/04/30 02:44:07;;;;;;;6.43;3.15;;;;;;;6.42;100.00;102423.41;5002891;28;20061;-73
2023/04/30 02:46:32;;;;;;;6.45;3.28;;;;;;;6.43;100.00;102433.03;4988903;28;20065;-74
2023/04/30 02:48:58;;;;;;;5.68;3.00;;;;;;;6.41;100.00;102424.25;5003157;28;20033;-73
2023/04/30 02:51:23;;;;;;;7.03;3.33;;;;;;;6.40;100.00;102426.03;5004534;28;20048;-74
2023/04/30 02:53:49;;;;;;;6.53;3.35;;;;;;;6.41;100.00;102437.41;5003989;28;20370;-73
2023/04/30 02:56:14;;;;;;;9.10;3.38;;;;;;;6.37;100.00;102432.16;4988770;28;20031;-73
2023/04/30 02:58:40;;;;;;;5.75;3.00;;;;;;;6.38;100.00;102444.44;5003968;28;20114;-73
2023/04/30 03:01:06;;;;;;;4.75;3.17;;;;;;;6.37;100.00;102434.81;4988315;28;20033;-73
2023/04/30 03:03:32;;;;;;;9.52;3.65;;;;;;;6.37;100.00;102432.16;5003362;28;20128;-73
2023/04/30 03:05:58;;;;;;;6.35;3.38;;;;;;;6.36;100.00;102434.78;5003939;28;20210;-73
2023/04/30 03:08:24;;;;;;;5.90;3.30;;;;;;;6.34;100.00;102432.19;5000966;28;21896;-73
2023/04/30 03:10:50;;;;;;;4.18;3.13;;;;;;;6.31;100.00;102424.28;4983647;28;20042;-72
2023/04/30 03:13:15;;;;;;;7.82;3.63;;;;;;;6.28;100.00;102431.31;5003286;28;20037;-73
2023/04/30 03:15:41;;;;;;;7.78;4.00;;;;;;;6.24;100.00;102433.97;5003789;28;20034;-74
2023/04/30 03:18:06;;;;;;;6.68;3.58;;;;;;;6.20;100.00;102432.19;5003780;28;20041;-74
2023/04/30 03:20:32;;;;;;;7.45;3.85;;;;;;;6.16;100.00;102440.09;5001796;28;20065;-74
2023/04/30 03:22:57;;;;;;;7.43;3.67;;;;;;;6.08;100.00;102429.59;5004044;28;20044;-73
2023/04/30 03:25:25;;;;;;;6.60;3.50;;;;;;;6.03;100.00;102431.34;5003213;28;20044;-73
2023/04/30 03:27:51;;;;;;;7.35;3.47;;;;;;;5.97;100.00;102435.72;4968290;28;20045;-73
2023/04/30 03:30:16;;;;;;;5.85;3.35;;;;;;;5.93;100.00;102428.69;4968601;28;20045;-73
2023/04/30 03:32:42;;;;;;;5.18;3.33;;;;;;;5.92;100.00;102431.31;4985423;28;20404;-73
2023/04/30 03:35:08;;;;;;;10.00;3.75;;;;;;;5.89;100.00;102436.59;5001706;28;20133;-73
2023/04/30 03:37:33;;;;;;;5.32;3.28;;;;;;;5.84;100.00;102431.34;5003272;28;20033;-73
2023/04/30 03:39:59;;;;;;;9.75;3.72;;;;;;;5.80;100.00;102427.81;5003597;28;20124;-73
2023/04/30 03:42:24;;;;;;;7.72;4.03;;;;;;;5.76;100.00;102431.31;4972382;28;20152;-73
2023/04/30 03:44:52;;;;;;;9.48;3.75;;;;;;;5.73;100.00;102431.34;5002919;28;20120;-73
2023/04/30 03:47:18;;;;;;;6.25;4.05;;;;;;;5.72;100.00;102440.06;4985392;28;20037;-73
2023/04/30 03:49:43;;;;;;;5.75;3.45;;;;;;;5.70;100.00;102441.84;5003898;28;20390;-73
2023/04/30 03:52:10;;;;;;;6.70;3.63;;;;;;;5.68;100.00;102444.44;5003007;28;20183;-73
2023/04/30 03:54:35;;;;;;;6.18;3.55;;;;;;;5.64;100.00;102440.09;4987616;28;20033;-73
2023/04/30 03:57:04;;;;;;;7.85;4.05;;;;;;;5.61;100.00;102449.72;4987887;28;20629;-73
2023/04/30 03:59:30;;;;;;;5.75;3.75;;;;;;;5.58;100.00;102453.22;5003162;28;20033;-73
2023/04/30 04:01:56;;;;;;;7.82;4.07;;;;;;;5.56;100.00;102461.09;4985583;28;20045;-73
2023/04/30 04:04:22;;;;;;;9.93;4.45;;;;;;;5.55;100.00;102454.09;4983390;28;20374;-73
2023/04/30 04:06:47;;;;;;;7.72;4.07;;;;;;;5.54;100.00;102456.69;5001950;28;20394;-73
2023/04/30 04:09:13;;;;;;;6.95;3.63;;;;;;;5.52;100.00;102461.97;4987725;28;20987;-73
2023/04/30 04:11:38;;;;;;;8.18;3.80;;;;;;;5.49;100.00;102456.69;4987082;28;20092;-73
2023/04/30 04:14:04;;;;;;;7.18;3.65;;;;;;;5.49;100.00;102463.72;5002161;28;20037;-73
2023/04/30 04:16:29;;;;;;;5.75;3.60;;;;;;;5.47;100.00;102468.06;5002551;28;20049;-73
2023/04/30 04:18:55;;;;;;;4.95;3.08;;;;;;;5.45;100.00;102468.06;4970412;28;20123;-73
2023/04/30 04:21:20;;;;;;;5.00;3.20;;;;;;;5.43;100.00;102467.19;4984601;28;20473;-73
2023/04/30 04:23:46;;;;;;;5.22;3.38;;;;;;;5.43;100.00;102465.44;5002121;28;20382;-73
2023/04/30 04:26:12;;;;;;;6.50;3.55;;;;;;;5.44;100.00;102472.44;5000933;28;20130;-74
2023/04/30 04:28:37;;;;;;;3.78;2.80;;;;;;;5.44;100.00;102482.06;5001839;28;20124;-73
2023/04/30 04:31:03;;;;;;;4.15;3.15;;;;;;;5.43;100.00;102469.81;4986815;28;20045;-73
2023/04/30 04:33:29;;;;;;;4.03;2.80;;;;;;;5.44;100.00;102482.06;5003076;28;20049;-73
2023/04/30 04:35:56;;;;;;;6.18;2.90;;;;;;;5.43;100.00;102480.31;5000591;28;21934;-73
2023/04/30 04:38:25;;;;;;;5.20;2.90;;;;;;;5.41;100.00;102479.44;5002192;28;20041;-73
2023/04/30 04:40:52;;;;;;;8.60;3.35;;;;;;;5.42;100.00;102468.06;5002087;28;20065;-73
2023/04/30 04:43:17;;;;;;;4.80;2.80;;;;;;;5.41;100.00;102466.31;4983933;28;20052;-73
2023/04/30 04:45:43;;;;;;;4.75;2.80;;;;;;;5.41;100.00;102464.56;4981295;28;20037;-73
2023/04/30 04:48:08;;;;;;;7.20;2.85;;;;;;;5.42;100.00;102465.44;5002477;28;20509;-73
2023/04/30 04:50:34;;;;;;;5.25;2.90;;;;;;;5.43;100.00;102473.34;4975349;28;20056;-73
2023/04/30 04:53:00;;;;;;;4.45;2.72;;;;;;;5.44;100.00;102479.44;5001400;28;20055;-73
2023/04/30 04:55:26;;;;;;;4.63;2.70;;;;;;;5.46;100.00;102476.84;4953688;28;20041;-73
2023/04/30 04:57:51;;;;;;;5.88;2.75;;;;;;;5.46;100.00;102474.19;4985518;28;20616;-73
2023/04/30 05:00:18;;;;;;;7.07;3.00;;;;;;;5.47;100.00;102487.34;5000532;28;20613;-72
2023/04/30 05:02:43;;;;;;;7.00;3.00;;;;;;;5.48;100.00;102481.22;4999530;28;20041;-73
2023/04/30 05:05:09;;;;;;;5.40;2.63;;;;;;;5.52;100.00;102484.72;4999512;28;20420;-73
2023/04/30 05:07:35;;;;;;;5.05;2.80;;;;;;;5.55;100.00;102480.34;5001336;28;20741;-73
2023/04/30 05:10:01;;;;;;;4.53;3.00;;;;;;;5.58;100.00;102487.38;5002825;28;20045;-73
2023/04/30 05:12:26;;;;;;;4.57;2.78;;;;;;;5.57;100.00;102490.88;4970450;28;20069;-73
2023/04/30 05:14:52;;;;;;;5.05;3.00;;;;;;;5.60;100.00;102492.63;5003284;28;20033;-73
2023/04/30 05:17:17;;;;;;;6.15;2.80;;;;;;;5.61;100.00;102490.00;4986974;28;20045;-73
2023/04/30 05:19:43;;;;;;;3.83;2.63;;;;;;;5.63;100.00;102490.91;4985699;28;20021;-73
2023/04/30 05:22:08;;;;;;;6.07;2.88;;;;;;;5.63;100.00;102483.00;5002376;28;20033;-73
2023/04/30 05:24:34;;;;;;;5.35;2.85;;;;;;;5.65;100.00;102493.50;5002893;28;20382;-73
2023/04/30 05:27:01;;;;;;;6.95;2.90;;;;;;;5.66;100.00;102488.25;4984100;28;20030;-73
2023/04/30 05:29:27;;;;;;;5.88;3.42;;;;;;;5.69;100.00;102487.38;4987491;28;20041;-73
2023/04/30 05:31:53;;;;;;;6.72;3.05;;;;;;;5.70;100.00;102494.38;5002199;28;20175;-73
2023/04/30 05:34:18;;;;;;;4.60;2.92;;;;;;;5.72;100.00;102487.38;5000581;28;20515;-72
2023/04/30 05:36:44;;;;;;;5.88;3.25;;;;;;;5.76;100.00;102499.66;5001407;28;20025;-73
2023/04/30 05:39:10;;;;;;;5.18;3.30;;;;;;;5.82;100.00;102504.03;4987437;28;20071;-73
2023/04/30 05:41:35;;;;;;;6.78;3.50;;;;;;;5.88;100.00;102504.03;4986429;28;20032;-73
2023/04/30 05:44:03;;;;;;;4.90;3.42;;;;;;;5.93;100.00;102506.66;5000448;28;20034;-72
2023/04/30 05:46:29;;;;;;;5.38;3.60;;;;;;;5.98;100.00;102503.19;5001836;28;20049;-73
2023/04/30 05:48:55;;;;;;;7.55;4.30;;;;;;;6.01;100.00;102502.31;4986072;28;20952;-72
2023/04/30 05:51:20;;;;;;;6.07;3.40;;;;;;;6.08;100.00;102504.09;4999479;28;20064;-73
2023/04/30 05:53:46;;;;;;;7.88;3.60;;;;;;;6.15;100.00;102514.63;4997884;28;20073;-72
2023/04/30 05:56:12;;;;;;;6.88;3.22;;;;;;;6.23;100.00;102508.47;4998986;28;20041;-72
2023/04/30 05:58:38;;;;;;;5.80;3.00;;;;;;;6.39;100.00;102516.38;4999914;28;20029;-72
2023/04/30 06:01:04;;;;;;;5.00;3.08;;;;;;;6.57;100.00;102512.81;4981220;28;20072;-72
2023/04/30 06:03:30;;;;;;;6.72;3.45;;;;;;;6.79;100.00;102507.50;5000562;28;20295;-72
2023/04/30 06:05:55;;;;;;;4.32;2.80;;;;;;;7.02;100.00;102509.16;4983091;28;20072;-73
2023/04/30 06:08:21;;;;;;;6.47;3.00;;;;;;;7.20;100.00;102509.09;5001299;28;20650;-72
2023/04/30 06:10:47;;;;;;;5.47;2.80;;;;;;;7.36;100.00;102510.78;5000947;28;20033;-72
2023/04/30 06:13:13;;;;;;;3.22;2.58;;;;;;;7.50;100.00;102511.59;4986175;28;20034;-71
2023/04/30 06:15:40;;;;;;;4.90;2.75;;;;;;;7.68;100.00;102522.91;5005813;28;20072;-72
2023/04/30 06:18:06;;;;;;;5.80;2.80;;;;;;;7.84;100.00;102523.69;4973842;28;20041;-73
2023/04/30 06:20:32;;;;;;;5.57;2.45;;;;;;;8.01;100.00;102521.78;4986662;28;20041;-72
2023/04/30 06:22:58;;;;;;;3.60;2.50;;;;;;;8.14;100.00;102519.94;4973291;28;20045;-72
2023/04/30 06:25:25;;;;;;;5.97;2.22;;;;;;;8.27;100.00;102520.69;4986377;28;20045;-72
2023/04/30 06:27:52;;;;;;;6.28;2.40;;;;;;;8.36;100.00;102522.38;4988935;28;20049;-72
2023/04/30 06:30:18;;;;;;;5.53;2.40;;;;;;;8.48;100.00;102521.38;5002923;28;20139;-73
2023/04/30 06:32:44;;;;;;;4.15;2.72;;;;;;;8.60;100.00;102519.56;4963546;28;20048;-72
2023/04/30 06:35:09;;;;;;;7.80;2.50;;;;;;;8.74;100.00;102522.03;4969611;28;20041;-72
2023/04/30 06:37:36;;;;;;;4.03;2.33;;;;;;;8.91;100.00;102513.94;5002812;28;20188;-72
2023/04/30 06:40:06;;;;;;;5.03;2.47;;;;;;;9.06;100.00;102513.72;5003718;28;20094;-72
2023/04/30 06:42:33;;;;;;;3.65;2.30;;;;;;;9.17;100.00;102510.97;4985223;28;20037;-72
2023/04/30 06:45:03;;;;;;;5.95;2.72;;;;;;;9.22;100.00;102517.06;4999417;28;20033;-72
2023/04/30 06:47:33;;;;;;;6.80;2.60;;;;;;;9.35;100.00;102511.63;5002246;28;20044;-72
2023/04/30 06:49:59;;;;;;;9.20;2.70;;;;;;;9.45;100.00;102509.72;4989167;28;20052;-73
2023/04/30 06:52:25;;;;;;;3.78;2.58;;;;;;;9.60;100.00;102520.06;5003726;28;20118;-73
2023/04/30 06:54:51;;;;;;;5.70;2.40;;;;;;;9.82;100.00;102514.47;5003988;28;20128;-72
2023/04/30 06:57:19;;;;;;;3.28;2.58;;;;;;;9.96;100.00;102513.38;5003612;28;20572;-73
2023/04/30 06:59:44;;;;;;;6.90;2.47;;;;;;;9.99;100.00;102506.28;5003704;28;20129;-73
2023/04/30 07:02:10;;;;;;;2.75;2.00;;;;;;;10.04;100.00;102504.41;4993597;28;20045;-73
2023/04/30 07:04:36;;;;;;;2.42;2.10;;;;;;;10.07;100.00;102513.22;4988385;28;20041;-73
2023/04/30 07:07:01;;;;;;;5.35;1.98;;;;;;;10.13;100.00;102518.41;5001909;28;20065;-73
2023/04/30 07:09:30;;;;;;;4.65;2.20;;;;;;;10.19;100.00;102518.31;4992750;28;20049;-73
2023/04/30 07:11:57;;;;;;;6.55;2.13;;;;;;;10.30;100.00;102521.63;4985423;28;20073;-73
2023/04/30 07:14:23;;;;;;;2.90;1.73;;;;;;;10.40;100.00;102516.19;4969724;28;20044;-73
2023/04/30 07:16:49;;;;;;;3.65;1.70;;;;;;;10.52;100.00;102509.81;5003937;28;20653;-73
2023/04/30 07:19:15;;;;;;;4.45;2.25;;;;;;;10.62;100.00;102508.72;5003594;28;20049;-72
2023/04/30 07:21:40;;;;;;;5.47;2.17;;;;;;;10.72;100.00;102512.06;5003386;28;20068;-73
2023/04/30 07:24:06;;;;;;;4.50;2.53;;;;;;;10.84;100.00;102510.97;5003573;28;20129;-72
2023/04/30 07:26:31;;;;;;;5.47;2.28;;;;;;;10.97;100.00;102512.47;5003748;28;20072;-73
2023/04/30 07:28:57;;;;;;;6.82;2.10;;;;;;;11.06;100.00;102506.09;4985156;28;20045;-73
2023/04/30 07:31:23;;;;;;;4.82;2.33;;;;;;;11.06;100.00;102516.69;4987299;28;20045;-73
2023/04/30 07:33:49;;;;;;;3.88;2.03;;;;;;;11.07;100.00;102513.13;4988685;28;20037;-73
2023/04/30 07:36:15;;;;;;;3.90;1.90;;;;;;;11.08;100.00;102511.34;4985585;28;20492;-73
2023/04/30 07:38:41;;;;;;;5.25;2.00;;;;;;;11.19;100.00;102517.31;4970292;28;20096;-73
2023/04/30 07:41:08;;;;;;;6.40;2.42;;;;;;;11.32;100.00;102517.91;5002300;28;20042;-73
2023/04/30 07:43:36;;;;;;;3.47;2.47;;;;;;;11.39;100.00;102513.38;4987242;28;20017;-73
2023/04/30 07:46:02;;;;;;;3.72;2.05;;;;;;;11.56;100.00;102523.59;5001864;28;20037;-74
2023/04/30 07:48:28;;;;;;;5.38;2.08;;;;;;;11.71;100.00;102518.84;5002802;28;20249;-73
2023/04/30 07:50:55;;;;;;;4.82;2.40;;;;;;;11.75;100.00;102510.75;5003028;28;20163;-73
2023/04/30 07:53:22;;;;;;;3.88;1.85;;;;;;;11.81;100.00;102520.34;5002888;28;20033;-73
2023/04/30 07:55:47;;;;;;;4.35;1.88;;;;;;;11.90;100.00;102516.59;4986337;28;20044;-73
2023/04/30 07:58:13;;;;;;;3.25;1.75;;;;;;;11.93;100.00;102514.75;4984839;28;20037;-73
2023/04/30 08:00:38;;;;;;;5.70;2.20;;;;;;;11.97;100.00;102518.19;5003076;28;20045;-73
2023/04/30 08:03:04;;;;;;;5.22;2.05;;;;;;;12.02;100.00;102516.31;5001104;28;20686;-73
2023/04/30 08:05:29;;;;;;;6.22;2.00;;;;;;;12.12;100.00;102514.31;4987496;28;20658;-73
2023/04/30 08:07:55;;;;;;;6.90;2.15;;;;;;;12.22;100.00;102520.28;5002570;28;20122;-73
2023/04/30 08:10:20;;;;;;;2.65;1.58;;;;;;;12.14;100.00;102522.25;4988044;28;20038;-73
2023/04/30 08:12:46;;;;;;;7.45;2.25;;;;;;;12.11;100.00;102527.63;4975695;28;21127;-75
2023/04/30 08:15:12;;;;;;;2.95;2.03;;;;;;;11.94;100.00;102526.25;4984238;28;20661;-74
2023/04/30 08:17:37;;;;;;;5.22;1.92;;;;;;;11.89;100.00;102523.72;4987012;28;20052;-74
2023/04/30 08:20:03;;;;;;;2.33;1.85;;;;;;;11.91;100.00;102526.31;5002624;28;20140;-73
2023/04/30 08:22:29;;;;;;;5.57;2.00;;;;;;;11.95;100.00;102535.94;4970826;28;20075;-74
2023/04/30 08:24:55;;;;;;;3.17;1.63;;;;;;;11.92;100.00;102536.00;4987760;28;20128;-74
2023/04/30 08:27:21;;;;;;;4.30;2.15;;;;;;;11.89;100.00;102531.66;4985428;28;20066;-74
2023/04/30 08:29:46;;;;;;;2.30;1.70;;;;;;;11.85;100.00;102537.06;5001956;28;20034;-74
2023/04/30 08:32:12;;;;;;;2.03;1.77;;;;;;;11.79;100.00;102544.28;5001041;28;20060;-72
2023/04/30 08:34:42;;;;;;;7.63;2.20;;;;;;;11.70;100.00;102538.31;4987110;28;20040;-73
2023/04/30 08:37:10;;;;;;;2.80;1.90;;;;;;;11.66;100.00;102538.38;4998605;28;20057;-74
2023/04/30 08:39:35;;;;;;;3.97;1.80;;;;;;;11.80;100.00;102543.38;4984252;28;20042;-73
2023/04/30 08:42:02;;;;;;;2.15;1.67;;;;;;;11.94;100.00;102543.03;4983865;28;20041;-72
2023/04/30 08:44:29;;;;;;;5.03;1.40;;;;;;;12.07;100.00;102542.75;4982285;28;21034;-73
2023/04/30 08:46:57;;;;;;;4.70;1.80;;;;;;;12.15;100.00;102543.44;4986173;28;20076;-73
2023/04/30 08:49:22;;;;;;;3.28;1.63;;;;;;;12.19;100.00;102549.53;4986450;28;20041;-72
2023/04/30 08:51:48;;;;;;;1.92;1.40;;;;;;;12.33;100.00;102536.78;5001440;28;20060;-73
2023/04/30 08:54:14;;;;;;;2.75;1.40;;;;;;;12.50;100.00;102535.47;5001642;28;20046;-72
2023/04/30 08:56:40;;;;;;;3.58;1.70;;;;;;;12.66;100.00;102537.72;4950591;28;20025;-73
2023/04/30 08:59:06;;;;;;;4.93;2.00;;;;;;;12.75;100.00;102542.81;5001607;28;20056;-73
2023/04/30 09:01:33;;;;;;;3.72;1.90;;;;;;;12.78;100.00;102537.38;5002233;28;20392;-73
2023/04/30 09:03:59;;;;;;;2.17;1.58;;;;;;;12.78;100.00;102542.69;5001117;28;20025;-72
2023/04/30 09:06:26;;;;;;;3.17;1.85;;;;;;;12.81;100.00;102534.63;4969916;28;20049;-73
2023/04/30 09:08:53;;;;;;;4.60;1.83;;;;;;;12.79;100.00;102527.63;4969336;28;20060;-73
2023/04/30 09:11:29;;;;;;;3.47;1.80;;;;;;;12.67;100.00;102540.34;4983161;28;20057;-73
2023/04/30 09:13:59;;;;;;;4.35;2.03;;;;;;;12.57;100.00;102531.75;4982335;28;20033;-73
2023/04/30 09:16:26;;;;;;;4.45;2.13;;;;;;;12.56;100.00;102535.31;4982740;28;20049;-73
2023/04/30 09:18:52;;;;;;;4.70;1.98;;;;;;;12.60;100.00;102542.28;4980119;28;20038;-73
2023/04/30 09:21:35;;;;;;;4.22;2.15;;;;;;;12.68;100.00;102533.25;4989985;28;20951;-73
2023/04/30 09:24:03;;;;;;;1.92;1.67;;;;;;;12.76;100.00;102536.56;4995842;28;20045;-73
2023/04/30 09:26:33;;;;;;;5.00;2.17;;;;;;;12.97;100.00;102526.25;4980780;28;20065;-73
2023/04/30 09:28:59;;;;;;;4.28;2.20;;;;;;;13.21;100.00;102524.66;4982544;28;20580;-73
2023/04/30 09:31:26;;;;;;;2.70;1.92;;;;;;;13.31;100.00;102528.75;4978579;28;20065;-73
2023/04/30 09:33:54;;;;;;;4.07;1.98;;;;;;;13.34;100.00;102533.13;4963934;28;20044;-73
2023/04/30 09:36:20;;;;;;;3.25;2.10;;;;;;;13.32;100.00;102521.66;4966350;28;20041;-72
2023/04/30 09:38:46;;;;;;;3.80;1.77;;;;;;;13.34;100.00;102527.78;4981280;28;22057;-73
2023/04/30 09:41:23;;;;;;;3.28;1.85;;;;;;;13.29;100.00;102521.78;4981662;28;21909;-73
2023/04/30 09:43:48;;;;;;;2.00;1.58;;;;;;;13.21;100.00;102526.41;4980233;28;20036;-73
2023/04/30 09:46:14;;;;;;;4.35;1.88;;;;;;;13.04;100.00;102525.16;4983078;28;20362;-73
2023/04/30 09:48:43;;;;;;;4.90;1.85;;;;;;;12.97;100.00;102526.25;5001040;28;22220;-73
2023/04/30 09:51:09;;;;;;;2.60;1.52;;;;;;;12.94;100.00;102515.69;4966560;28;20124;-73
2023/04/30 09:53:40;;;;;;;3.85;1.65;;;;;;;12.91;100.00;102516.63;4954703;28;20470;-73
2023/04/30 09:56:07;;;;;;;7.75;1.98;;;;;;;12.97;100.00;102504.97;4967754;28;20037;-73
2023/04/30 09:58:39;;;;;;;5.13;1.75;;;;;;;13.09;100.00;102496.66;4985096;28;20030;-74
2023/04/30 10:01:07;;;;;;;3.70;1.83;;;;;;;13.31;100.00;102496.84;4987056;28;20038;-74
2023/04/30 10:03:33;;;;;;;3.78;1.60;;;;;;;13.49;100.00;102493.69;4987472;28;20026;-74
2023/04/30 10:05:58;;;;;;;2.83;1.60;;;;;;;13.68;99.32;102497.50;5000292;28;20060;-74
2023/04/30 10:08:30;;;;;;;2.42;1.33;;;;;;;13.83;96.69;102489.94;4968546;28;20038;-74
2023/04/30 10:11:07;;;;;;;2.00;1.42;;;;;;;13.89;95.89;102492.41;4986966;28;20714;-73
2023/04/30 10:13:41;;;;;;;4.22;1.70;;;;;;;13.92;95.66;102487.00;4988364;28;20073;-74
2023/04/30 10:16:12;;;;;;;2.40;1.58;;;;;;;13.95;94.39;102484.22;4971925;28;20033;-72
2023/04/30 10:18:39;;;;;;;2.28;1.70;;;;;;;13.97;95.86;102482.38;5005220;28;20036;-74
2023/04/30 10:21:11;;;;;;;3.70;1.92;;;;;;;13.99;94.12;102483.19;4986634;28;20037;-73
2023/04/30 10:23:42;;;;;;;5.53;1.35;;;;;;;13.98;93.92;102476.13;4987251;28;20052;-73
2023/04/30 10:26:11;;;;;;;3.20;1.50;;;;;;;13.96;93.70;102480.63;5003084;28;20486;-73
2023/04/30 10:28:36;;;;;;;4.32;1.65;;;;;;;13.95;93.42;102472.69;4969933;28;20033;-74
2023/04/30 10:31:03;;;;;;;2.63;1.40;;;;;;;13.97;91.79;102473.50;5004961;28;20053;-73
2023/04/30 10:33:36;;;;;;;3.63;1.60;;;;;;;14.05;93.31;102468.78;5001851;28;20056;-73
2023/04/30 10:36:03;;;;;;;;;;;;;;;14.07;89.28;102461.63;5005888;28;20488;-73
2023/04/30 10:38:31;;;;;;;4.35;1.55;;;;;;;14.03;92.89;102467.97;4988877;28;19920;-73
2023/04/30 10:40:58;;;;;;;4.07;1.85;;;;;;;14.02;93.14;102465.38;4971192;28;20030;-74
2023/04/30 10:43:24;;;;;;;1.85;1.65;;;;;;;13.99;91.94;102467.22;4987563;28;20056;-73
2023/04/30 10:45:50;;;;;;;1.92;1.42;;;;;;;13.95;92.55;102457.59;5001676;28;20034;-73
2023/04/30 10:48:23;;;;;;;2.83;1.80;;;;;;;13.97;92.07;102453.09;4972045;28;20043;-73
2023/04/30 10:50:51;;;;;;;4.03;1.63;;;;;;;13.88;91.67;102450.72;4988966;28;20038;-73
2023/04/30 10:53:18;;;;;;;7.20;1.80;;;;;;;13.80;92.57;102452.78;4988419;28;20041;-73
2023/04/30 10:55:56;;;;;;;4.57;1.60;;;;;;;13.88;93.40;102456.06;5002911;28;20029;-73
2023/04/30 10:58:26;;;;;;;3.78;1.85;;;;;;;13.90;93.43;102448.03;5000037;28;21300;-72
2023/04/30 11:01:12;;;;;;;3.75;1.90;;;;;;;13.98;92.68;102444.19;5003779;28;20041;-73
2023/04/30 11:03:41;;;;;;;4.78;1.50;;;;;;;14.04;93.41;102442.22;4985565;28;20042;-74
2023/04/30 11:06:08;;;;;;;3.17;1.27;;;;;;;14.04;92.55;102436.88;4987612;28;20469;-73
2023/04/30 11:08:35;;;;;;;4.32;1.73;;;;;;;13.98;91.54;102433.53;4984458;28;20037;-73
2023/04/30 11:11:01;;;;;;;3.10;1.50;;;;;;;14.01;93.02;102431.69;4987308;28;20088;-74
2023/04/30 11:13:27;;;;;;;2.22;1.58;;;;;;;14.15;93.16;102426.72;5002927;28;20528;-73
2023/04/30 11:15:52;;;;;;;1.73;1.33;;;;;;;14.25;93.24;102428.16;5002848;28;20451;-73
2023/04/30 11:18:18;;;;;;;2.75;1.83;;;;;;;14.30;93.04;102421.78;5001794;28;20116;-73
2023/04/30 11:20:50;;;;;;;2.10;1.70;;;;;;;14.34;91.52;102420.75;5002238;28;20124;-74
2023/04/30 11:23:19;;;;;;;2.97;1.50;;;;;;;14.35;91.70;102419.81;4968474;28;20749;-73
2023/04/30 11:25:46;;;;;;;2.08;1.55;;;;;;;14.39;92.31;102419.66;4987188;28;20089;-73